Time;durP1;ratioP1;P1;durP2;ratioP2;P2;SDS_P1;SDS_P2;PMS_P1;PMS_P2;Temp;Humidity;BMP_temperature;BMP_pressure;BME280_temperature;BME280_humidity;BME280_pressure;Samples;Min_cycle;Max_cycle;Signal;HPM_P1;HPM_P2
2022/07/28 00:01:20;;;;;;;;;;;15.40;99.20;;;;;;5076769;28;20018;-70
2022/07/28 00:03:47;;;;;;;;;;;15.30;99.40;;;;;;5094901;28;19966;-71
2022/07/28 00:06:14;;;;;;;;;;;15.30;99.70;;;;;;5091199;28;19936;-71
2022/07/28 00:08:41;;;;;;;;;;;15.30;99.80;;;;;;5094345;28;19967;-71
2022/07/28 00:11:07;;;;;;;;;;;15.20;99.90;;;;;;5092116;28;20036;-70
2022/07/28 00:13:34;;;;;;;;;;;15.20;99.90;;;;;;5090433;28;19975;-71
2022/07/28 00:16:01;;;;;;;;;;;15.20;99.90;;;;;;5085125;28;19964;-70
2022/07/28 00:18:29;;;;;;;;;;;15.10;99.90;;;;;;5093673;28;20365;-70
2022/07/28 00:20:56;;;;;;;;;;;15.10;99.90;;;;;;5088430;28;20058;-72
2022/07/28 00:23:23;;;;;;;;;;;15.10;99.90;;;;;;5073914;28;19924;-71
2022/07/28 00:25:50;;;;;;;;;;;15.10;99.90;;;;;;5073446;28;20018;-72
2022/07/28 00:28:16;;;;;;;;;;;15.00;99.90;;;;;;5087601;28;20017;-72
2022/07/28 00:30:43;;;;;;;;;;;15.00;99.90;;;;;;5073712;28;19974;-71
2022/07/28 00:33:10;;;;;;;;;;;14.90;99.90;;;;;;5090500;28;19930;-72
2022/07/28 00:35:38;;;;;;;;;;;15.00;99.90;;;;;;5093977;28;20035;-72
2022/07/28 00:38:05;;;;;;;;;;;15.00;99.90;;;;;;5075517;28;20031;-72
2022/07/28 00:43:15;;;;;;;;;;;14.90;99.90;;;;;;5090662;28;19931;-71
2022/07/28 00:45:42;;;;;;;;;;;14.90;99.90;;;;;;5086012;28;19925;-72
2022/07/28 00:48:09;;;;;;;;;;;14.90;99.90;;;;;;5077576;28;20007;-71
2022/07/28 00:50:37;;;;;;;;;;;14.90;99.90;;;;;;5073108;28;19925;-72
2022/07/28 00:53:05;;;;;;;;;;;14.90;99.90;;;;;;5089264;28;19924;-71
2022/07/28 00:55:32;;;;;;;;;;;14.90;99.90;;;;;;5093200;28;20370;-72
2022/07/28 00:58:00;;;;;;;;;;;14.80;99.90;;;;;;5074937;28;20379;-72
2022/07/28 01:00:26;;;;;;;;;;;14.80;99.90;;;;;;5073097;28;20003;-71
2022/07/28 01:02:53;;;;;;;;;;;14.80;99.90;;;;;;5087912;28;20011;-71
2022/07/28 01:05:20;;;;;;;;;;;14.80;99.90;;;;;;5073618;28;19924;-71
2022/07/28 01:07:50;;;;;;;;;;;14.80;99.90;;;;;;5085991;28;19932;-72
2022/07/28 01:10:22;;;;;;;;;;;14.80;99.90;;;;;;5073031;28;19934;-71
2022/07/28 01:12:50;;;;;;;;;;;14.80;99.90;;;;;;5086806;28;19967;-71
2022/07/28 01:15:24;;;;;;;;;;;14.80;99.90;;;;;;5093003;28;20438;-72
2022/07/28 01:17:54;;;;;;;;;;;14.80;99.90;;;;;;5076132;28;19924;-72
2022/07/28 01:20:23;;;;;;;;;;;14.80;99.90;;;;;;5071855;28;19971;-71
2022/07/28 01:22:56;;;;;;;;;;;14.80;99.90;;;;;;5086884;28;19924;-71
2022/07/28 01:25:34;;;;;;;;;;;14.70;99.90;;;;;;5092694;28;19960;-71
2022/07/28 01:28:06;;;;;;;;;;;14.70;99.90;;;;;;5090663;28;20014;-72
2022/07/28 01:30:38;;;;;;;;;;;14.70;99.90;;;;;;5092923;28;19967;-71
2022/07/28 01:33:09;;;;;;;;;;;14.70;99.90;;;;;;5090611;28;19970;-71
2022/07/28 01:35:40;;;;;;;;;;;14.70;99.90;;;;;;5087818;28;20015;-72
2022/07/28 01:38:07;;;;;;;;;;;14.70;99.90;;;;;;5089169;28;19963;-72
2022/07/28 01:40:35;;;;;;;;;;;14.60;99.90;;;;;;5080089;28;19924;-72
2022/07/28 01:43:05;;;;;;;;;;;14.60;99.90;;;;;;5087994;28;19993;-72
2022/07/28 01:45:33;;;;;;;;;;;14.60;99.90;;;;;;5076928;28;19963;-71
2022/07/28 01:48:02;;;;;;;;;;;14.60;99.90;;;;;;5085544;28;20318;-71
2022/07/28 01:50:29;;;;;;;;;;;14.50;99.90;;;;;;5072178;28;19971;-72
2022/07/28 01:52:56;;;;;;;;;;;14.50;99.90;;;;;;5087427;28;19967;-71
2022/07/28 01:55:24;;;;;;;;;;;14.50;99.90;;;;;;5092360;28;19959;-71
2022/07/28 01:57:53;;;;;;;;;;;14.40;99.90;;;;;;5090190;28;19924;-72
2022/07/28 02:00:19;;;;;;;;;;;14.40;99.90;;;;;;5092533;28;19928;-72
2022/07/28 02:02:48;;;;;;;;;;;14.30;99.90;;;;;;5090913;28;19963;-71
2022/07/28 02:05:17;;;;;;;;;;;14.30;99.90;;;;;;5092630;28;19979;-72
2022/07/28 02:07:45;;;;;;;;;;;14.30;99.90;;;;;;5089712;28;20388;-72
2022/07/28 02:10:12;;;;;;;;;;;14.20;99.90;;;;;;5092435;28;19967;-72
2022/07/28 02:12:39;;;;;;;;;;;14.20;99.90;;;;;;5085793;28;19955;-72
2022/07/28 02:15:07;;;;;;;;;;;14.10;99.90;;;;;;5092274;28;20298;-72
2022/07/28 02:17:35;;;;;;;;;;;14.10;99.90;;;;;;5090851;28;20288;-71
2022/07/28 02:20:03;;;;;;;;;;;14.00;99.90;;;;;;5092723;28;19967;-72
2022/07/28 02:22:32;;;;;;;;;;;14.00;99.90;;;;;;5090294;28;19928;-72
2022/07/28 02:24:59;;;;;;;;;;;14.00;99.90;;;;;;5076349;28;19924;-72
2022/07/28 02:27:33;;;;;;;;;;;13.90;99.90;;;;;;5071610;28;19925;-72
2022/07/28 02:30:02;;;;;;;;;;;13.90;99.90;;;;;;5074357;28;20023;-72
2022/07/28 02:32:38;;;;;;;;;;;13.90;99.90;;;;;;5075943;28;19924;-72
2022/07/28 02:35:07;;;;;;;;;;;13.90;99.90;;;;;;5076201;28;19925;-72
2022/07/28 02:37:37;;;;;;;;;;;13.90;99.90;;;;;;5087669;28;20329;-72
2022/07/28 02:40:05;;;;;;;;;;;13.80;99.90;;;;;;5076463;28;19924;-72
2022/07/28 02:42:33;;;;;;;;;;;13.80;99.90;;;;;;5087077;28;20337;-72
2022/07/28 02:45:01;;;;;;;;;;;13.80;99.90;;;;;;5095565;28;19990;-72
2022/07/28 02:47:31;;;;;;;;;;;13.80;99.90;;;;;;5093547;28;20023;-72
2022/07/28 02:50:00;;;;;;;;;;;13.80;99.90;;;;;;5095783;28;19928;-72
2022/07/28 02:52:28;;;;;;;;;;;13.70;99.90;;;;;;5093537;28;19924;-71
2022/07/28 02:54:57;;;;;;;;;;;13.70;99.90;;;;;;5095874;28;19955;-72
2022/07/28 02:57:24;;;;;;;;;;;13.70;99.90;;;;;;5086436;28;20377;-71
2022/07/28 02:59:52;;;;;;;;;;;13.70;99.90;;;;;;5096038;28;19952;-72
2022/07/28 03:02:20;;;;;;;;;;;13.70;99.90;;;;;;5093229;28;20494;-72
2022/07/28 03:05:00;;;;;;;;;;;13.60;99.90;;;;;;5095459;28;19955;-71
2022/07/28 03:07:27;;;;;;;;;;;13.60;99.90;;;;;;5086675;28;19927;-71
2022/07/28 03:09:56;;;;;;;;;;;13.60;99.90;;;;;;5095412;28;19930;-71
2022/07/28 03:12:22;;;;;;;;;;;13.60;99.90;;;;;;5089705;28;19924;-71
2022/07/28 03:14:49;;;;;;;;;;;13.60;99.90;;;;;;5095257;28;19979;-72
2022/07/28 03:17:16;;;;;;;;;;;13.60;99.90;;;;;;5093157;28;20018;-72
2022/07/28 03:19:43;;;;;;;;;;;13.50;99.90;;;;;;5095409;28;19978;-71
2022/07/28 03:22:10;;;;;;;;;;;13.50;99.90;;;;;;5093425;28;20014;-71
2022/07/28 03:24:38;;;;;;;;;;;13.50;99.90;;;;;;5095572;28;20004;-72
2022/07/28 03:27:11;;;;;;;;;;;13.40;99.90;;;;;;5093155;28;19933;-72
2022/07/28 03:29:39;;;;;;;;;;;13.40;99.90;;;;;;5095241;28;19932;-72
2022/07/28 03:32:06;;;;;;;;;;;13.40;99.90;;;;;;5092929;28;20018;-71
2022/07/28 03:34:33;;;;;;;;;;;13.40;99.90;;;;;;5080965;28;20015;-71
2022/07/28 03:37:01;;;;;;;;;;;13.30;99.90;;;;;;5082445;28;19975;-71
2022/07/28 03:39:29;;;;;;;;;;;13.40;99.90;;;;;;5097168;28;19928;-71
2022/07/28 03:41:57;;;;;;;;;;;13.30;99.90;;;;;;5093759;28;20371;-71
2022/07/28 03:44:26;;;;;;;;;;;13.20;99.90;;;;;;5083071;28;20019;-72
2022/07/28 03:46:53;;;;;;;;;;;13.20;99.90;;;;;;5077491;28;19924;-72
2022/07/28 03:49:20;;;;;;;;;;;13.20;99.90;;;;;;5074562;28;19993;-71
2022/07/28 03:51:47;;;;;;;;;;;13.20;99.90;;;;;;5079857;28;20391;-72
2022/07/28 03:54:14;;;;;;;;;;;13.20;99.90;;;;;;5094616;28;20382;-72
2022/07/28 03:56:40;;;;;;;;;;;13.20;99.90;;;;;;5092307;28;19924;-71
2022/07/28 03:59:07;;;;;;;;;;;13.20;99.90;;;;;;5082431;28;19963;-72
2022/07/28 04:01:35;;;;;;;;;;;13.20;99.90;;;;;;5087516;28;19960;-73
2022/07/28 04:04:02;;;;;;;;;;;13.30;99.90;;;;;;5074114;28;19928;-71
2022/07/28 04:06:29;;;;;;;;;;;13.20;99.90;;;;;;5076732;28;19932;-71
2022/07/28 04:08:55;;;;;;;;;;;13.20;99.90;;;;;;5094613;28;20352;-72
2022/07/28 04:11:22;;;;;;;;;;;13.20;99.90;;;;;;5089393;28;20370;-71
2022/07/28 04:13:49;;;;;;;;;;;13.20;99.90;;;;;;5073767;28;20001;-71
2022/07/28 04:16:15;;;;;;;;;;;13.20;99.90;;;;;;5077946;28;19956;-72
2022/07/28 04:18:43;;;;;;;;;;;13.20;99.90;;;;;;5094353;28;20023;-71
2022/07/28 04:21:10;;;;;;;;;;;13.20;99.90;;;;;;5091316;28;20027;-71
2022/07/28 04:23:37;;;;;;;;;;;13.20;99.90;;;;;;5073560;28;19924;-71
2022/07/28 04:26:03;;;;;;;;;;;13.20;99.90;;;;;;5083920;28;19977;-72
2022/07/28 04:28:30;;;;;;;;;;;13.20;99.90;;;;;;5072654;28;20016;-71
2022/07/28 04:30:57;;;;;;;;;;;13.20;99.90;;;;;;5072202;28;19924;-72
2022/07/28 04:33:24;;;;;;;;;;;13.20;99.90;;;;;;5073348;28;19924;-71
2022/07/28 04:35:52;;;;;;;;;;;13.20;99.90;;;;;;5073452;28;19925;-72
2022/07/28 04:38:19;;;;;;;;;;;13.20;99.90;;;;;;5091994;28;20358;-71
2022/07/28 04:40:46;;;;;;;;;;;13.20;99.90;;;;;;5093554;28;20348;-72
2022/07/28 04:43:13;;;;;;;;;;;13.20;99.90;;;;;;5091614;28;19970;-71
2022/07/28 04:45:40;;;;;;;;;;;13.20;99.90;;;;;;5085486;28;20395;-71
2022/07/28 04:48:06;;;;;;;;;;;13.20;99.90;;;;;;5090033;28;20084;-71
2022/07/28 04:50:33;;;;;;;;;;;13.20;99.90;;;;;;5093408;28;20026;-71
2022/07/28 04:53:01;;;;;;;;;;;13.20;99.90;;;;;;5074646;28;20418;-71
2022/07/28 04:55:28;;;;;;;;;;;13.20;99.90;;;;;;5073103;28;19924;-72
2022/07/28 04:57:55;;;;;;;;;;;13.30;99.90;;;;;;5072333;28;19925;-72
2022/07/28 05:00:22;;;;;;;;;;;13.30;99.90;;;;;;5072660;28;19975;-72
2022/07/28 05:02:48;;;;;;;;;;;13.20;99.90;;;;;;5086890;28;19935;-72
2022/07/28 05:05:15;;;;;;;;;;;13.30;99.90;;;;;;5074018;28;19924;-72
2022/07/28 05:07:43;;;;;;;;;;;13.30;99.90;;;;;;5085934;28;19975;-72
2022/07/28 05:10:11;;;;;;;;;;;13.30;99.90;;;;;;5093233;28;19924;-71
2022/07/28 05:12:38;;;;;;;;;;;13.30;99.90;;;;;;5091474;28;19970;-71
2022/07/28 05:15:05;;;;;;;;;;;13.30;99.90;;;;;;5093113;28;19924;-71
2022/07/28 05:17:32;;;;;;;;;;;13.30;99.90;;;;;;5087329;28;19924;-72
2022/07/28 05:19:58;;;;;;;;;;;13.30;99.90;;;;;;5074945;28;20023;-72
2022/07/28 05:22:25;;;;;;;;;;;13.20;99.90;;;;;;5071238;28;19967;-72
2022/07/28 05:24:52;;;;;;;;;;;13.20;99.90;;;;;;5072827;28;20392;-72
2022/07/28 05:27:20;;;;;;;;;;;13.20;99.90;;;;;;5072216;28;19986;-72
2022/07/28 05:29:46;;;;;;;;;;;13.20;99.90;;;;;;5072495;28;19966;-72
2022/07/28 05:32:13;;;;;;;;;;;13.30;99.90;;;;;;5071791;28;20338;-72
2022/07/28 05:34:40;;;;;;;;;;;13.20;99.90;;;;;;5072343;28;19973;-72
2022/07/28 05:37:07;;;;;;;;;;;13.30;99.90;;;;;;5085509;28;19946;-72
2022/07/28 05:39:34;;;;;;;;;;;13.40;99.90;;;;;;5092424;28;19924;-71
2022/07/28 05:42:01;;;;;;;;;;;13.50;99.90;;;;;;5082359;28;19974;-72
2022/07/28 05:44:28;;;;;;;;;;;13.50;99.90;;;;;;5071807;28;20011;-71
2022/07/28 05:46:55;;;;;;;;;;;13.60;99.90;;;;;;5077507;28;19924;-72
2022/07/28 05:49:22;;;;;;;;;;;13.60;99.90;;;;;;5092603;28;19924;-72
2022/07/28 05:51:49;;;;;;;;;;;13.70;99.90;;;;;;5086564;28;20021;-72
2022/07/28 05:54:15;;;;;;;;;;;13.80;99.90;;;;;;5092834;28;20030;-72
2022/07/28 05:56:42;;;;;;;;;;;13.90;99.90;;;;;;5090554;28;19968;-72
2022/07/28 05:59:09;;;;;;;;;;;14.00;99.90;;;;;;5092098;28;19923;-71
2022/07/28 06:01:37;;;;;;;;;;;14.00;99.90;;;;;;5089912;28;19966;-71
2022/07/28 06:04:04;;;;;;;;;;;14.50;99.90;;;;;;5093383;28;19931;-72
2022/07/28 06:06:31;;;;;;;;;;;15.60;99.90;;;;;;5079911;28;19952;-72
2022/07/28 06:08:58;;;;;;;;;;;16.00;99.90;;;;;;5080424;28;20046;-70
2022/07/28 06:11:24;;;;;;;;;;;16.40;99.80;;;;;;5078709;28;19972;-70
2022/07/28 06:13:51;;;;;;;;;;;17.60;98.30;;;;;;5096500;28;19951;-71
2022/07/28 06:16:19;;;;;;;;;;;18.20;96.50;;;;;;5094292;28;20015;-71
2022/07/28 06:18:47;;;;;;;;;;;18.00;93.60;;;;;;5096245;28;19959;-71
2022/07/28 06:21:14;;;;;;;;;;;18.10;94.50;;;;;;5087355;28;19932;-70
2022/07/28 06:23:41;;;;;;;;;;;17.60;95.20;;;;;;5090815;28;20018;-69
2022/07/28 06:26:07;;;;;;;;;;;16.90;94.70;;;;;;5076075;28;19924;-70
2022/07/28 06:28:34;;;;;;;;;;;16.10;96.80;;;;;;5096610;28;19946;-70
2022/07/28 06:31:00;;;;;;;;;;;16.20;97.30;;;;;;5094672;28;20005;-70
2022/07/28 06:33:27;;;;;;;;;;;16.50;97.20;;;;;;5095414;28;20379;-70
2022/07/28 06:35:56;;;;;;;;;;;16.60;95.90;;;;;;5095474;28;19974;-69
2022/07/28 06:38:24;;;;;;;;;;;16.50;96.10;;;;;;5094489;28;20015;-70
2022/07/28 06:40:51;;;;;;;;;;;16.60;96.10;;;;;;5080819;28;19924;-69
2022/07/28 06:43:17;;;;;;;;;;;16.80;95.90;;;;;;5076855;28;19931;-70
2022/07/28 06:45:44;;;;;;;;;;;16.90;95.50;;;;;;5075345;28;19963;-70
2022/07/28 06:48:12;;;;;;;;;;;17.20;95.20;;;;;;5092724;28;19936;-70
2022/07/28 06:50:39;;;;;;;;;;;17.10;95.10;;;;;;5095649;28;19959;-70
2022/07/28 06:53:07;;;;;;;;;;;16.90;95.20;;;;;;5092345;28;20022;-70
2022/07/28 06:55:34;;;;;;;;;;;17.20;95.20;;;;;;5091183;28;20035;-69
2022/07/28 06:58:01;;;;;;;;;;;17.60;94.40;;;;;;5090867;28;20019;-70
2022/07/28 07:00:27;;;;;;;;;;;17.70;94.20;;;;;;5095459;28;20026;-70
2022/07/28 07:02:54;;;;;;;;;;;17.60;94.00;;;;;;5093389;28;20098;-70
2022/07/28 07:05:21;;;;;;;;;;;17.60;94.00;;;;;;5095442;28;19975;-69
2022/07/28 07:07:47;;;;;;;;;;;17.30;94.20;;;;;;5079525;28;19925;-70
2022/07/28 07:10:15;;;;;;;;;;;17.50;94.20;;;;;;5074038;28;20007;-69
2022/07/28 07:12:42;;;;;;;;;;;17.40;94.40;;;;;;5074203;28;19978;-70
2022/07/28 07:15:09;;;;;;;;;;;17.40;94.50;;;;;;5074406;28;19998;-70
2022/07/28 07:17:37;;;;;;;;;;;17.30;93.90;;;;;;5086568;28;20007;-70
2022/07/28 07:20:04;;;;;;;;;;;17.30;94.70;;;;;;5082822;28;19948;-70
2022/07/28 07:22:31;;;;;;;;;;;17.50;94.00;;;;;;5086396;28;19963;-70
2022/07/28 07:24:57;;;;;;;;;;;18.30;93.30;;;;;;5094888;28;19931;-72
2022/07/28 07:27:25;;;;;;;;;;;20.20;89.20;;;;;;5092969;28;19931;-69
2022/07/28 07:29:52;;;;;;;;;;;21.30;80.20;;;;;;5096438;28;19924;-69
2022/07/28 07:32:19;;;;;;;;;;;20.70;78.70;;;;;;5093161;28;20011;-71
2022/07/28 07:34:45;;;;;;;;;;;19.80;80.70;;;;;;5095429;28;19997;-69
2022/07/28 07:37:13;;;;;;;;;;;19.80;81.60;;;;;;5093887;28;19924;-70
2022/07/28 07:39:40;;;;;;;;;;;19.80;81.20;;;;;;5094948;28;19924;-70
2022/07/28 07:42:07;;;;;;;;;;;20.60;78.80;;;;;;5093055;28;20011;-70
2022/07/28 07:44:35;;;;;;;;;;;20.50;78.10;;;;;;5081474;28;20472;-71
2022/07/28 07:47:02;;;;;;;;;;;20.80;75.40;;;;;;5077356;28;19975;-70
2022/07/28 07:49:29;;;;;;;;;;;20.30;76.80;;;;;;5074237;28;19925;-70
2022/07/28 07:51:55;;;;;;;;;;;20.30;75.60;;;;;;5075387;28;19967;-70
2022/07/28 07:54:22;;;;;;;;;;;20.10;77.00;;;;;;5074283;28;19924;-70
2022/07/28 07:56:49;;;;;;;;;;;20.50;75.60;;;;;;5079877;28;19987;-69
2022/07/28 07:59:15;;;;;;;;;;;21.40;74.30;;;;;;5092563;28;19967;-70
2022/07/28 08:01:44;;;;;;;;;;;21.70;71.70;;;;;;5078670;28;19967;-69
2022/07/28 08:04:10;;;;;;;;;;;21.20;70.60;;;;;;5093658;28;19959;-69
2022/07/28 08:06:37;;;;;;;;;;;20.40;74.60;;;;;;5091426;28;19923;-69
2022/07/28 08:09:04;;;;;;;;;;;20.80;73.30;;;;;;5094323;28;19924;-69
2022/07/28 08:11:31;;;;;;;;;;;20.50;73.20;;;;;;5091830;28;19924;-69
2022/07/28 08:13:57;;;;;;;;;;;20.40;72.50;;;;;;5087254;28;19932;-69
2022/07/28 08:16:24;;;;;;;;;;;20.40;73.20;;;;;;5075795;28;19928;-69
2022/07/28 08:18:52;;;;;;;;;;;20.90;71.40;;;;;;5093816;28;20375;-69
2022/07/28 08:21:19;;;;;;;;;;;21.30;71.00;;;;;;5091902;28;19942;-69
2022/07/28 08:23:46;;;;;;;;;;;21.60;69.60;;;;;;5093571;28;20504;-70
2022/07/28 08:26:13;;;;;;;;;;;21.90;66.90;;;;;;5090998;28;20038;-69
2022/07/28 08:28:40;;;;;;;;;;;21.80;64.90;;;;;;5093046;28;20018;-73
2022/07/28 08:31:06;;;;;;;;;;;21.60;63.70;;;;;;5090755;28;20375;-72
2022/07/28 08:33:33;;;;;;;;;;;21.60;63.90;;;;;;5093263;28;20010;-69
2022/07/28 08:36:01;;;;;;;;;;;21.40;64.70;;;;;;5091852;28;20043;-70
2022/07/28 08:38:28;;;;;;;;;;;21.40;65.80;;;;;;5072371;28;19924;-70
2022/07/28 08:40:56;;;;;;;;;;;21.70;63.50;;;;;;5072932;28;19928;-69
2022/07/28 08:43:30;;;;;;;;;;;21.60;62.70;;;;;;5072407;28;20431;-71
2022/07/28 08:45:59;;;;;;;;;;;22.00;61.20;;;;;;5072586;28;20007;-69
2022/07/28 08:48:27;;;;;;;;;;;22.10;60.20;;;;;;5092811;28;19924;-69
2022/07/28 08:50:56;;;;;;;;;;;22.20;60.60;;;;;;5092986;28;19974;-70
2022/07/28 08:53:24;;;;;;;;;;;21.70;59.00;;;;;;5073598;28;19968;-69
2022/07/28 08:55:51;;;;;;;;;;;22.30;58.20;;;;;;5073156;28;20023;-69
2022/07/28 08:58:17;;;;;;;;;;;22.00;57.10;;;;;;5090935;28;20426;-69
2022/07/28 09:00:44;;;;;;;;;;;21.70;57.70;;;;;;5084680;28;19978;-70
2022/07/28 09:03:12;;;;;;;;;;;22.00;56.40;;;;;;5088144;28;20378;-69
2022/07/28 09:05:40;;;;;;;;;;;22.20;55.90;;;;;;5072726;28;20038;-69
2022/07/28 09:08:07;;;;;;;;;;;22.30;53.60;;;;;;5088403;28;19931;-70
2022/07/28 09:10:35;;;;;;;;;;;22.10;54.80;;;;;;5091179;28;19968;-70
2022/07/28 09:13:02;;;;;;;;;;;22.70;53.50;;;;;;5088943;28;19924;-70
2022/07/28 09:15:29;;;;;;;;;;;23.70;48.70;;;;;;5093101;28;19924;-70
2022/07/28 09:17:55;;;;;;;;;;;23.10;50.90;;;;;;5090666;28;19924;-71
2022/07/28 09:20:23;;;;;;;;;;;22.60;49.30;;;;;;5084384;28;20007;-70
2022/07/28 09:22:57;;;;;;;;;;;22.70;49.80;;;;;;5086945;28;19928;-70
2022/07/28 09:25:24;;;;;;;;;;;22.20;51.60;;;;;;5092744;28;19953;-70
2022/07/28 09:27:52;;;;;;;;;;;22.20;51.20;;;;;;5090432;28;20433;-70
2022/07/28 09:30:27;;;;;;;;;;;22.60;48.90;;;;;;5092544;28;19979;-71
2022/07/28 09:33:07;;;;;;;;;;;22.50;49.20;;;;;;5089848;28;20098;-70
2022/07/28 09:35:42;;;;;;;;;;;22.40;48.90;;;;;;5087981;28;20022;-70
2022/07/28 09:38:08;;;;;;;;;;;22.50;48.90;;;;;;5088427;28;20015;-70
2022/07/28 09:40:35;;;;;;;;;;;22.40;48.40;;;;;;5073242;28;19925;-70
2022/07/28 09:43:03;;;;;;;;;;;22.10;47.70;;;;;;5085336;28;19940;-71
2022/07/28 09:45:30;;;;;;;;;;;21.90;49.10;;;;;;5072138;28;19925;-71
2022/07/28 09:48:11;;;;;;;;;;;22.10;47.10;;;;;;5072434;28;19924;-71
2022/07/28 09:50:39;;;;;;;;;;;22.60;46.50;;;;;;5070710;28;19924;-70
2022/07/28 09:53:22;;;;;;;;;;;22.50;45.10;;;;;;5088889;28;19986;-70
2022/07/28 09:55:54;;;;;;;;;;;22.80;44.00;;;;;;5092272;28;20026;-70
2022/07/28 09:58:22;;;;;;;;;;;22.80;43.30;;;;;;5087961;28;19935;-70
2022/07/28 10:00:49;;;;;;;;;;;22.90;43.60;;;;;;5071481;28;19975;-70
2022/07/28 10:03:24;;;;;;;;;;;22.40;43.70;;;;;;5089768;28;19924;-70
2022/07/28 10:05:50;;;;;;;;;;;22.40;44.10;;;;;;5092286;28;19970;-70
2022/07/28 10:08:17;;;;;;;;;;;22.30;46.20;;;;;;5085939;28;20344;-69
2022/07/28 10:10:57;;;;;;;;;;;22.10;46.40;;;;;;5071550;28;19946;-70
2022/07/28 10:13:25;;;;;;;;;;;22.50;45.40;;;;;;5072198;28;19974;-70
2022/07/28 10:16:13;;;;;;;;;;;21.70;46.20;;;;;;5071877;28;20011;-70
2022/07/28 10:18:40;;;;;;;;;;;21.90;47.90;;;;;;5071822;28;19925;-70
2022/07/28 10:21:10;;;;;;;;;;;21.60;48.00;;;;;;5071111;28;19925;-68
2022/07/28 10:23:37;;;;;;;;;;;21.60;48.00;;;;;;5081137;28;20010;-69
2022/07/28 10:26:05;;;;;;;;;;;21.50;47.10;;;;;;5071495;28;19925;-69
2022/07/28 10:28:34;;;;;;;;;;;21.70;47.60;;;;;;5071595;28;19932;-69
2022/07/28 10:31:01;;;;;;;;;;;22.00;48.10;;;;;;5070997;28;19931;-71
2022/07/28 10:33:30;;;;;;;;;;;22.00;47.10;;;;;;5091432;28;19971;-69
2022/07/28 10:35:58;;;;;;;;;;;21.60;46.40;;;;;;5090550;28;19928;-70
2022/07/28 10:38:26;;;;;;;;;;;21.40;47.50;;;;;;5090953;28;20361;-69
2022/07/28 10:40:55;;;;;;;;;;;21.60;48.50;;;;;;5076065;28;19971;-70
2022/07/28 10:43:22;;;;;;;;;;;21.70;47.50;;;;;;5072344;28;19976;-69
2022/07/28 10:45:51;;;;;;;;;;;22.10;47.90;;;;;;5072099;28;19967;-70
2022/07/28 10:48:19;;;;;;;;;;;22.10;47.80;;;;;;5089917;28;20291;-70
2022/07/28 10:50:46;;;;;;;;;;;22.10;45.60;;;;;;5093701;28;19924;-69
2022/07/28 10:53:18;;;;;;;;;;;22.20;45.00;;;;;;5093395;28;20015;-69
2022/07/28 10:55:48;;;;;;;;;;;22.40;45.50;;;;;;5089353;28;19925;-69
2022/07/28 10:58:20;;;;;;;;;;;21.90;46.40;;;;;;5093456;28;19928;-69
2022/07/28 11:00:47;;;;;;;;;;;21.80;46.80;;;;;;5095911;28;20015;-69
2022/07/28 11:03:29;;;;;;;;;;;21.50;45.80;;;;;;5093505;28;20412;-69
2022/07/28 11:05:57;;;;;;;;;;;21.60;45.90;;;;;;5082463;28;20137;-69
2022/07/28 11:08:27;;;;;;;;;;;21.70;45.60;;;;;;5075332;28;19975;-69
2022/07/28 11:10:55;;;;;;;;;;;21.80;46.40;;;;;;5075129;28;19956;-69
2022/07/28 11:13:23;;;;;;;;;;;21.70;46.50;;;;;;5094034;28;20383;-69
2022/07/28 11:15:49;;;;;;;;;;;21.60;46.60;;;;;;5093724;28;19956;-69
2022/07/28 11:18:16;;;;;;;;;;;21.60;47.30;;;;;;5094920;28;20018;-69
2022/07/28 11:21:01;;;;;;;;;;;21.70;45.70;;;;;;5096231;28;19996;-69
2022/07/28 11:23:39;;;;;;;;;;;21.80;46.10;;;;;;5073438;28;20446;-69
2022/07/28 11:26:35;;;;;;;;;;;21.70;45.10;;;;;;5074631;28;19924;-68
2022/07/28 11:29:20;;;;;;;;;;;21.80;44.80;;;;;;5079853;28;20398;-69
2022/07/28 11:31:56;;;;;;;;;;;21.90;45.20;;;;;;5092302;28;20352;-69
2022/07/28 11:34:24;;;;;;;;;;;21.80;44.90;;;;;;5081788;28;19975;-70
2022/07/28 11:37:01;;;;;;;;;;;21.90;45.00;;;;;;5079534;28;19924;-71
2022/07/28 11:39:30;;;;;;;;;;;22.30;46.00;;;;;;5094832;28;19931;-72
2022/07/28 11:41:56;;;;;;;;;;;22.70;45.50;;;;;;5092598;28;19964;-71
2022/07/28 11:44:23;;;;;;;;;;;22.40;44.20;;;;;;5082582;28;19960;-69
2022/07/28 11:46:51;;;;;;;;;;;22.10;45.90;;;;;;5077029;28;19924;-69
2022/07/28 11:49:27;;;;;;;;;;;22.30;45.30;;;;;;5074465;28;19925;-69
2022/07/28 11:52:11;;;;;;;;;;;22.80;44.80;;;;;;5081211;28;19931;-69
2022/07/28 11:54:40;;;;;;;;;;;22.50;43.20;;;;;;5094294;28;19924;-69
2022/07/28 11:57:08;;;;;;;;;;;22.30;42.10;;;;;;5092054;28;19924;-69
2022/07/28 11:59:49;;;;;;;;;;;22.50;44.60;;;;;;5089211;28;20279;-70
2022/07/28 12:02:19;;;;;;;;;;;22.70;43.40;;;;;;5082226;28;20015;-70
2022/07/28 12:04:54;;;;;;;;;;;22.80;42.80;;;;;;5079891;28;19978;-70
2022/07/28 12:07:26;;;;;;;;;;;23.20;43.60;;;;;;5084144;28;19924;-70
2022/07/28 12:09:54;;;;;;;;;;;23.10;42.00;;;;;;5093978;28;20383;-70
2022/07/28 12:12:21;;;;;;;;;;;22.90;42.30;;;;;;5092258;28;20006;-70
2022/07/28 12:14:48;;;;;;;;;;;22.90;42.80;;;;;;5094052;28;20417;-70
2022/07/28 12:17:15;;;;;;;;;;;22.70;42.40;;;;;;5088519;28;19931;-69
2022/07/28 12:19:42;;;;;;;;;;;22.50;42.20;;;;;;5093976;28;19959;-70
2022/07/28 12:22:12;;;;;;;;;;;22.60;43.40;;;;;;5092137;28;20354;-70
2022/07/28 12:24:38;;;;;;;;;;;22.50;42.80;;;;;;5077458;28;19967;-70
2022/07/28 12:27:10;;;;;;;;;;;22.70;43.00;;;;;;5080999;28;20407;-70
2022/07/28 12:29:37;;;;;;;;;;;22.80;42.40;;;;;;5093205;28;20468;-70
2022/07/28 12:32:04;;;;;;;;;;;23.60;41.70;;;;;;5083222;28;19990;-70
2022/07/28 12:34:33;;;;;;;;;;;23.40;39.20;;;;;;5073159;28;19924;-69
2022/07/28 12:37:01;;;;;;;;;;;23.50;41.40;;;;;;5075462;28;19963;-70
2022/07/28 12:39:29;;;;;;;;;;;23.40;40.60;;;;;;5073422;28;19928;-70
2022/07/28 12:42:00;;;;;;;;;;;23.30;40.50;;;;;;5079933;28;20421;-71
2022/07/28 12:44:34;;;;;;;;;;;23.20;40.60;;;;;;5093136;28;19930;-70
2022/07/28 12:47:00;;;;;;;;;;;22.90;41.60;;;;;;5082697;28;19947;-70
2022/07/28 12:49:27;;;;;;;;;;;23.40;41.10;;;;;;5073114;28;19924;-71
2022/07/28 12:51:54;;;;;;;;;;;23.40;41.50;;;;;;5079499;28;20455;-71
2022/07/28 12:54:33;;;;;;;;;;;23.30;41.50;;;;;;5092621;28;19975;-70
2022/07/28 12:57:00;;;;;;;;;;;23.30;40.70;;;;;;5090579;28;19924;-71
2022/07/28 12:59:31;;;;;;;;;;;23.00;40.00;;;;;;5079113;28;20024;-70
2022/07/28 13:01:59;;;;;;;;;;;22.80;39.90;;;;;;5072337;28;19968;-70
2022/07/28 13:04:39;;;;;;;;;;;22.90;40.50;;;;;;5073267;28;19931;-70
2022/07/28 13:07:09;;;;;;;;;;;22.80;40.20;;;;;;5079060;28;20008;-71
2022/07/28 13:09:36;;;;;;;;;;;23.10;41.60;;;;;;5092802;28;19924;-71
2022/07/28 13:12:03;;;;;;;;;;;23.20;40.10;;;;;;5090655;28;19981;-71
2022/07/28 13:14:39;;;;;;;;;;;23.40;40.50;;;;;;5092686;28;19960;-71
2022/07/28 13:17:07;;;;;;;;;;;23.50;40.10;;;;;;5086875;28;19932;-70
2022/07/28 13:19:34;;;;;;;;;;;23.50;41.10;;;;;;5087644;28;19929;-70
2022/07/28 13:22:01;;;;;;;;;;;23.50;40.60;;;;;;5079549;28;20023;-70
2022/07/28 13:24:28;;;;;;;;;;;23.30;40.40;;;;;;5092581;28;20015;-71
2022/07/28 13:26:54;;;;;;;;;;;23.20;39.30;;;;;;5091000;28;19930;-72
2022/07/28 13:29:21;;;;;;;;;;;23.30;39.80;;;;;;5091050;28;19970;-71
2022/07/28 13:31:48;;;;;;;;;;;23.40;39.30;;;;;;5077050;28;19924;-70
2022/07/28 13:34:16;;;;;;;;;;;23.30;39.20;;;;;;5092827;28;19924;-71
2022/07/28 13:36:43;;;;;;;;;;;23.40;39.50;;;;;;5074899;28;20381;-71
2022/07/28 13:39:10;;;;;;;;;;;23.30;39.40;;;;;;5072102;28;19959;-71
2022/07/28 13:41:37;;;;;;;;;;;23.50;39.80;;;;;;5076176;28;20296;-70
2022/07/28 13:44:04;;;;;;;;;;;23.60;38.40;;;;;;5092244;28;20010;-71
2022/07/28 13:46:30;;;;;;;;;;;23.60;39.80;;;;;;5089914;28;20011;-70
2022/07/28 13:48:57;;;;;;;;;;;23.60;38.30;;;;;;5091871;28;19975;-70
2022/07/28 13:51:25;;;;;;;;;;;23.80;38.20;;;;;;5089893;28;20018;-70
2022/07/28 13:53:52;;;;;;;;;;;23.50;37.20;;;;;;5092359;28;20007;-70
2022/07/28 13:56:37;;;;;;;;;;;23.30;38.80;;;;;;5090006;28;19955;-70
2022/07/28 13:59:04;;;;;;;;;;;23.60;38.40;;;;;;5074673;28;19928;-70
2022/07/28 14:01:31;;;;;;;;;;;23.50;38.50;;;;;;5078229;28;19924;-70
2022/07/28 14:03:58;;;;;;;;;;;23.30;38.30;;;;;;5092047;28;19982;-70
2022/07/28 14:06:26;;;;;;;;;;;23.40;38.10;;;;;;5089778;28;19935;-70
2022/07/28 14:08:52;;;;;;;;;;;23.60;38.40;;;;;;5092491;28;19959;-70
2022/07/28 14:11:19;;;;;;;;;;;23.90;37.90;;;;;;5087744;28;19930;-70
2022/07/28 14:13:46;;;;;;;;;;;23.80;37.70;;;;;;5071210;28;19978;-71
2022/07/28 14:16:12;;;;;;;;;;;23.50;37.10;;;;;;5072494;28;19933;-70
2022/07/28 14:18:39;;;;;;;;;;;23.40;38.70;;;;;;5092264;28;20011;-71
2022/07/28 14:21:07;;;;;;;;;;;23.40;38.20;;;;;;5089465;28;20015;-70
2022/07/28 14:23:36;;;;;;;;;;;23.30;37.90;;;;;;5078398;28;19935;-70
2022/07/28 14:26:02;;;;;;;;;;;23.40;38.00;;;;;;5073425;28;19978;-70